Information Last Ob Photographs Meteogram Network Table Neighbors Monthly Summaries Observation History Wind Roses Custom Wind Roses Data Calendar Satellite Cloud Product Download Terminal Aerodome Forecast

Most Recent Observation

This application displays the last observation received by the IEM from this site. The time stamp is in America/New_York timezone.

Observation Local Time19 Apr 2024, 12:56 PM
Observation UTC Time2024-04-19T16:56:00Z
Air Temp [F]55
Maximum Air Temperature [F]55
Minimum Air Temperature [F]41
Dew Point [F]38
Wind DirectionSE (140 degrees)
Wind Speed [knots]10
Altimeter [inches]30.04
Raw Observation/ProductKRUT 191656Z AUTO 14010KT 10SM OVC039 13/03 A3004 RMK AO2 SLP169 T01280033 $
Cloud Layer 1: OVC (3900 feet)

This data was provided by a JSON(P) webservice. You can find more JSON services.